sensor_id;sensor_type;location;lat;lon;timestamp;pressure;altitude;pressure_sealevel;temperature;humidity
56374;BME280;58212;47.034;7.376;2023-10-08T00:02:10;96403.97;;;12.78;71.98
56374;BME280;58212;47.034;7.376;2023-10-08T00:04:40;96403.22;;;12.71;72.21
56374;BME280;58212;47.034;7.376;2023-10-08T00:07:12;96394.91;;;12.67;72.19
56374;BME280;58212;47.034;7.376;2023-10-08T00:09:39;96396.97;;;12.65;72.32
56374;BME280;58212;47.034;7.376;2023-10-08T00:12:06;96402.03;;;12.67;72.38
56374;BME280;58212;47.034;7.376;2023-10-08T00:14:33;96392.44;;;12.66;72.66
56374;BME280;58212;47.034;7.376;2023-10-08T00:17:11;96396.97;;;12.65;72.79
56374;BME280;58212;47.034;7.376;2023-10-08T00:19:38;96394.31;;;12.65;72.18
56374;BME280;58212;47.034;7.376;2023-10-08T00:22:05;96393.69;;;12.63;72.51
56374;BME280;58212;47.034;7.376;2023-10-08T00:24:33;96392.44;;;12.66;72.53
56374;BME280;58212;47.034;7.376;2023-10-08T00:26:59;96398.81;;;12.65;72.03
56374;BME280;58212;47.034;7.376;2023-10-08T00:29:27;96397.75;;;12.66;72.01
56374;BME280;58212;47.034;7.376;2023-10-08T00:31:57;96396.44;;;12.57;72.27
56374;BME280;58212;47.034;7.376;2023-10-08T00:34:25;96398.91;;;12.52;72.80
56374;BME280;58212;47.034;7.376;2023-10-08T00:36:52;96398.41;;;12.43;73.38
56374;BME280;58212;47.034;7.376;2023-10-08T00:39:19;96398.88;;;12.34;73.58
56374;BME280;58212;47.034;7.376;2023-10-08T00:41:50;96386.31;;;12.22;74.03
56374;BME280;58212;47.034;7.376;2023-10-08T00:44:20;96385.25;;;12.30;73.66
56374;BME280;58212;47.034;7.376;2023-10-08T00:46:56;96387.81;;;12.37;73.40
56374;BME280;58212;47.034;7.376;2023-10-08T00:49:28;96391.06;;;12.20;72.68
56374;BME280;58212;47.034;7.376;2023-10-08T00:52:14;96388.22;;;11.53;74.20
56374;BME280;58212;47.034;7.376;2023-10-08T00:54:56;96395.69;;;11.31;75.74
56374;BME280;58212;47.034;7.376;2023-10-08T00:57:35;96396.13;;;11.28;77.05
56374;BME280;58212;47.034;7.376;2023-10-08T01:02:30;96390.91;;;11.15;76.96
56374;BME280;58212;47.034;7.376;2023-10-08T01:05:14;96396.94;;;11.28;77.56
56374;BME280;58212;47.034;7.376;2023-10-08T01:07:45;96385.81;;;11.51;76.41
56374;BME280;58212;47.034;7.376;2023-10-08T01:10:15;96387.22;;;11.54;76.73
56374;BME280;58212;47.034;7.376;2023-10-08T01:12:46;96385.44;;;11.41;77.35
56374;BME280;58212;47.034;7.376;2023-10-08T01:15:29;96383.88;;;11.34;78.04
56374;BME280;58212;47.034;7.376;2023-10-08T01:18:02;96383.06;;;11.33;78.15
56374;BME280;58212;47.034;7.376;2023-10-08T01:20:31;96388.16;;;11.28;78.49
56374;BME280;58212;47.034;7.376;2023-10-08T01:23:06;96389.00;;;11.28;78.54
56374;BME280;58212;47.034;7.376;2023-10-08T01:25:36;96382.84;;;11.35;77.93
56374;BME280;58212;47.034;7.376;2023-10-08T01:28:05;96382.00;;;11.34;78.37
56374;BME280;58212;47.034;7.376;2023-10-08T01:30:40;96373.81;;;11.42;77.77
56374;BME280;58212;47.034;7.376;2023-10-08T01:33:08;96376.22;;;11.50;78.09
56374;BME280;58212;47.034;7.376;2023-10-08T01:35:40;96369.91;;;11.51;77.67
56374;BME280;58212;47.034;7.376;2023-10-08T01:38:08;96376.63;;;11.54;77.91
56374;BME280;58212;47.034;7.376;2023-10-08T01:40:41;96365.81;;;11.55;77.49
56374;BME280;58212;47.034;7.376;2023-10-08T01:43:09;96372.75;;;11.50;77.40
56374;BME280;58212;47.034;7.376;2023-10-08T01:45:38;96373.34;;;11.58;77.19
56374;BME280;58212;47.034;7.376;2023-10-08T01:48:08;96375.22;;;11.51;77.56
56374;BME280;58212;47.034;7.376;2023-10-08T01:50:36;96367.47;;;11.50;77.54
56374;BME280;58212;47.034;7.376;2023-10-08T01:53:04;96371.13;;;11.49;77.93
56374;BME280;58212;47.034;7.376;2023-10-08T01:55:35;96374.22;;;11.46;78.18
56374;BME280;58212;47.034;7.376;2023-10-08T01:58:15;96374.00;;;11.47;77.69
56374;BME280;58212;47.034;7.376;2023-10-08T02:00:43;96368.56;;;11.36;78.06
56374;BME280;58212;47.034;7.376;2023-10-08T02:03:12;96365.97;;;11.29;78.73
56374;BME280;58212;47.034;7.376;2023-10-08T02:05:41;96354.31;;;11.30;78.52
56374;BME280;58212;47.034;7.376;2023-10-08T02:08:09;96352.56;;;11.49;77.76
56374;BME280;58212;47.034;7.376;2023-10-08T02:10:39;96352.16;;;11.52;77.31
56374;BME280;58212;47.034;7.376;2023-10-08T02:13:07;96358.97;;;11.35;78.09
56374;BME280;58212;47.034;7.376;2023-10-08T02:15:35;96354.88;;;11.07;78.01
56374;BME280;58212;47.034;7.376;2023-10-08T02:18:04;96364.34;;;10.77;79.05
56374;BME280;58212;47.034;7.376;2023-10-08T02:20:32;96364.69;;;10.94;78.75
56374;BME280;58212;47.034;7.376;2023-10-08T02:23:00;96367.75;;;10.91;78.90
56374;BME280;58212;47.034;7.376;2023-10-08T02:25:27;96360.81;;;10.96;78.52
56374;BME280;58212;47.034;7.376;2023-10-08T02:27:55;96363.47;;;10.90;78.29
56374;BME280;58212;47.034;7.376;2023-10-08T02:30:23;96362.03;;;10.94;79.16
56374;BME280;58212;47.034;7.376;2023-10-08T02:32:50;96360.66;;;10.85;79.33
56374;BME280;58212;47.034;7.376;2023-10-08T02:35:18;96357.16;;;10.91;79.83
56374;BME280;58212;47.034;7.376;2023-10-08T02:37:46;96364.28;;;10.90;79.29
56374;BME280;58212;47.034;7.376;2023-10-08T02:40:13;96360.00;;;10.96;79.34
56374;BME280;58212;47.034;7.376;2023-10-08T02:42:47;96358.75;;;10.98;79.18
56374;BME280;58212;47.034;7.376;2023-10-08T02:45:16;96360.03;;;10.89;79.27
56374;BME280;58212;47.034;7.376;2023-10-08T02:47:43;96360.44;;;10.93;79.21
56374;BME280;58212;47.034;7.376;2023-10-08T02:50:11;96355.75;;;10.88;79.16
56374;BME280;58212;47.034;7.376;2023-10-08T02:52:42;96355.41;;;10.78;79.73
56374;BME280;58212;47.034;7.376;2023-10-08T02:55:11;96364.97;;;10.72;79.42
56374;BME280;58212;47.034;7.376;2023-10-08T02:57:49;96366.78;;;10.72;79.68
56374;BME280;58212;47.034;7.376;2023-10-08T03:00:18;96367.59;;;10.79;79.16
56374;BME280;58212;47.034;7.376;2023-10-08T03:02:46;96365.13;;;10.84;79.30
56374;BME280;58212;47.034;7.376;2023-10-08T03:05:13;96355.34;;;10.91;79.13
56374;BME280;58212;47.034;7.376;2023-10-08T03:07:42;96356.34;;;10.90;79.02
56374;BME280;58212;47.034;7.376;2023-10-08T03:10:10;96348.59;;;10.95;78.63
56374;BME280;58212;47.034;7.376;2023-10-08T03:12:44;96343.25;;;11.02;78.25
56374;BME280;58212;47.034;7.376;2023-10-08T03:15:12;96343.09;;;10.97;78.25
56374;BME280;58212;47.034;7.376;2023-10-08T03:17:54;96354.13;;;10.87;79.00
56374;BME280;58212;47.034;7.376;2023-10-08T03:20:23;96359.41;;;10.87;79.30
56374;BME280;58212;47.034;7.376;2023-10-08T03:23:04;96358.78;;;10.92;79.20
56374;BME280;58212;47.034;7.376;2023-10-08T03:25:37;96353.91;;;10.89;78.74
56374;BME280;58212;47.034;7.376;2023-10-08T03:28:07;96359.25;;;10.82;79.04
56374;BME280;58212;47.034;7.376;2023-10-08T03:30:38;96357.63;;;10.81;79.61
56374;BME280;58212;47.034;7.376;2023-10-08T03:33:16;96357.56;;;10.94;79.15
56374;BME280;58212;47.034;7.376;2023-10-08T03:35:48;96355.91;;;11.00;78.76
56374;BME280;58212;47.034;7.376;2023-10-08T03:38:18;96356.66;;;11.13;78.52
56374;BME280;58212;47.034;7.376;2023-10-08T03:40:54;96355.41;;;11.22;77.61
56374;BME280;58212;47.034;7.376;2023-10-08T03:43:29;96350.72;;;11.18;77.79
56374;BME280;58212;47.034;7.376;2023-10-08T03:46:08;96354.19;;;11.18;77.82
56374;BME280;58212;47.034;7.376;2023-10-08T03:48:43;96346.84;;;11.20;77.88
56374;BME280;58212;47.034;7.376;2023-10-08T03:51:11;96350.88;;;11.23;77.91
56374;BME280;58212;47.034;7.376;2023-10-08T03:53:38;96347.06;;;11.19;77.64
56374;BME280;58212;47.034;7.376;2023-10-08T03:56:25;96354.44;;;11.10;78.20
56374;BME280;58212;47.034;7.376;2023-10-08T03:58:55;96347.94;;;11.06;78.63
56374;BME280;58212;47.034;7.376;2023-10-08T04:01:26;96349.72;;;11.12;78.72
56374;BME280;58212;47.034;7.376;2023-10-08T04:03:58;96343.59;;;11.18;78.56
56374;BME280;58212;47.034;7.376;2023-10-08T04:06:28;96337.81;;;11.28;77.67
56374;BME280;58212;47.034;7.376;2023-10-08T04:08:56;96333.91;;;11.37;77.40
56374;BME280;58212;47.034;7.376;2023-10-08T04:11:37;96338.97;;;11.39;76.72
56374;BME280;58212;47.034;7.376;2023-10-08T04:14:17;96337.34;;;11.38;76.11
56374;BME280;58212;47.034;7.376;2023-10-08T04:16:45;96330.88;;;11.34;76.57
56374;BME280;58212;47.034;7.376;2023-10-08T04:19:13;96337.44;;;11.24;77.16
56374;BME280;58212;47.034;7.376;2023-10-08T04:21:44;96344.78;;;10.85;77.67
56374;BME280;58212;47.034;7.376;2023-10-08T04:24:21;96356.69;;;10.56;80.03
56374;BME280;58212;47.034;7.376;2023-10-08T04:26:54;96352.00;;;10.51;79.83
56374;BME280;58212;47.034;7.376;2023-10-08T04:29:22;96352.97;;;10.70;79.80
56374;BME280;58212;47.034;7.376;2023-10-08T04:31:50;96347.44;;;10.71;78.98
56374;BME280;58212;47.034;7.376;2023-10-08T04:34:28;96354.22;;;10.61;79.28
56374;BME280;58212;47.034;7.376;2023-10-08T04:36:55;96348.25;;;10.78;78.80
56374;BME280;58212;47.034;7.376;2023-10-08T04:39:27;96350.22;;;10.90;78.35
56374;BME280;58212;47.034;7.376;2023-10-08T04:41:58;96348.41;;;10.97;78.18
56374;BME280;58212;47.034;7.376;2023-10-08T04:44:31;96350.81;;;10.98;77.68
56374;BME280;58212;47.034;7.376;2023-10-08T04:46:57;96345.53;;;10.98;76.86
56374;BME280;58212;47.034;7.376;2023-10-08T04:49:32;96346.53;;;10.97;77.10
56374;BME280;58212;47.034;7.376;2023-10-08T04:52:00;96343.72;;;10.92;77.27
56374;BME280;58212;47.034;7.376;2023-10-08T04:54:30;96345.75;;;10.97;77.07
56374;BME280;58212;47.034;7.376;2023-10-08T04:56:58;96335.31;;;11.02;76.58
56374;BME280;58212;47.034;7.376;2023-10-08T04:59:25;96339.41;;;10.98;76.73
56374;BME280;58212;47.034;7.376;2023-10-08T05:01:59;96334.34;;;10.96;76.46
56374;BME280;58212;47.034;7.376;2023-10-08T05:04:50;96337.41;;;10.87;76.69
56374;BME280;58212;47.034;7.376;2023-10-08T05:07:43;96327.47;;;10.82;76.99
56374;BME280;58212;47.034;7.376;2023-10-08T05:10:44;96335.81;;;10.79;77.30
56374;BME280;58212;47.034;7.376;2023-10-08T05:13:27;96338.47;;;10.79;76.95
56374;BME280;58212;47.034;7.376;2023-10-08T05:15:58;96337.44;;;10.80;76.92
56374;BME280;58212;47.034;7.376;2023-10-08T05:18:55;96337.88;;;10.77;77.20
56374;BME280;58212;47.034;7.376;2023-10-08T05:22:06;96338.72;;;10.71;76.90
56374;BME280;58212;47.034;7.376;2023-10-08T05:24:57;96326.50;;;10.70;77.43
56374;BME280;58212;47.034;7.376;2023-10-08T05:27:37;96329.75;;;10.72;76.75
56374;BME280;58212;47.034;7.376;2023-10-08T05:30:25;96341.34;;;10.77;76.62
56374;BME280;58212;47.034;7.376;2023-10-08T05:32:55;96342.56;;;10.75;77.05
56374;BME280;58212;47.034;7.376;2023-10-08T05:35:51;96345.88;;;10.64;77.50
56374;BME280;58212;47.034;7.376;2023-10-08T05:38:23;96344.84;;;10.65;76.69
56374;BME280;58212;47.034;7.376;2023-10-08T05:41:05;96342.59;;;10.62;77.40
56374;BME280;58212;47.034;7.376;2023-10-08T05:43:42;96344.41;;;10.68;77.28
56374;BME280;58212;47.034;7.376;2023-10-08T05:46:35;96356.47;;;10.57;77.31
56374;BME280;58212;47.034;7.376;2023-10-08T05:49:13;96354.44;;;10.59;77.61
56374;BME280;58212;47.034;7.376;2023-10-08T05:51:52;96361.34;;;10.54;77.39
56374;BME280;58212;47.034;7.376;2023-10-08T05:54:37;96357.66;;;10.68;77.02
56374;BME280;58212;47.034;7.376;2023-10-08T05:57:23;96366.19;;;10.76;76.69
56374;BME280;58212;47.034;7.376;2023-10-08T06:00:04;96353.53;;;10.85;76.75
56374;BME280;58212;47.034;7.376;2023-10-08T06:03:04;96354.09;;;10.94;76.22
56374;BME280;58212;47.034;7.376;2023-10-08T06:05:37;96355.69;;;11.01;75.37
56374;BME280;58212;47.034;7.376;2023-10-08T06:08:11;96363.63;;;11.01;75.78
56374;BME280;58212;47.034;7.376;2023-10-08T06:10:41;96368.53;;;10.98;75.58
56374;BME280;58212;47.034;7.376;2023-10-08T06:13:31;96372.00;;;10.98;76.29
56374;BME280;58212;47.034;7.376;2023-10-08T06:16:10;96375.88;;;10.96;76.39
56374;BME280;58212;47.034;7.376;2023-10-08T06:18:57;96384.88;;;10.88;76.36
56374;BME280;58212;47.034;7.376;2023-10-08T06:21:22;96386.88;;;10.99;76.36
56374;BME280;58212;47.034;7.376;2023-10-08T06:23:51;96387.28;;;11.03;76.28
56374;BME280;58212;47.034;7.376;2023-10-08T06:26:23;96387.69;;;11.00;76.67
56374;BME280;58212;47.034;7.376;2023-10-08T06:28:50;96388.72;;;10.99;76.62
56374;BME280;58212;47.034;7.376;2023-10-08T06:31:22;96396.41;;;11.13;76.23
56374;BME280;58212;47.034;7.376;2023-10-08T06:33:50;96402.88;;;11.24;76.28
56374;BME280;58212;47.034;7.376;2023-10-08T06:36:17;96402.25;;;11.28;76.57
56374;BME280;58212;47.034;7.376;2023-10-08T06:38:49;96408.34;;;11.29;76.37
56374;BME280;58212;47.034;7.376;2023-10-08T06:41:16;96412.22;;;11.33;76.06
56374;BME280;58212;47.034;7.376;2023-10-08T06:43:46;96410.72;;;11.44;75.99
56374;BME280;58212;47.034;7.376;2023-10-08T06:46:16;96419.72;;;11.36;76.04
56374;BME280;58212;47.034;7.376;2023-10-08T06:48:45;96422.97;;;11.38;76.73
56374;BME280;58212;47.034;7.376;2023-10-08T06:51:15;96425.56;;;11.51;76.58
56374;BME280;58212;47.034;7.376;2023-10-08T06:53:46;96425.91;;;11.61;76.04
56374;BME280;58212;47.034;7.376;2023-10-08T06:56:14;96426.88;;;11.67;75.93
56374;BME280;58212;47.034;7.376;2023-10-08T06:58:42;96430.97;;;11.69;76.20
56374;BME280;58212;47.034;7.376;2023-10-08T07:01:14;96436.84;;;11.78;75.88
56374;BME280;58212;47.034;7.376;2023-10-08T07:03:47;96439.09;;;11.81;76.20
56374;BME280;58212;47.034;7.376;2023-10-08T07:06:14;96432.53;;;11.84;76.21
56374;BME280;58212;47.034;7.376;2023-10-08T07:08:51;96430.06;;;11.89;76.33
56374;BME280;58212;47.034;7.376;2023-10-08T07:11:21;96435.53;;;11.94;76.05
56374;BME280;58212;47.034;7.376;2023-10-08T07:13:48;96433.25;;;11.97;76.28
56374;BME280;58212;47.034;7.376;2023-10-08T07:16:17;96438.13;;;12.07;76.42
56374;BME280;58212;47.034;7.376;2023-10-08T07:18:44;96440.16;;;12.05;76.54
56374;BME280;58212;47.034;7.376;2023-10-08T07:21:15;96441.94;;;12.11;76.74
56374;BME280;58212;47.034;7.376;2023-10-08T07:23:42;96436.22;;;12.14;77.22
56374;BME280;58212;47.034;7.376;2023-10-08T07:26:21;96431.88;;;12.19;77.29
56374;BME280;58212;47.034;7.376;2023-10-08T07:28:50;96433.84;;;12.31;77.56
56374;BME280;58212;47.034;7.376;2023-10-08T07:31:20;96424.28;;;12.48;76.64
56374;BME280;58212;47.034;7.376;2023-10-08T07:33:49;96430.56;;;12.53;76.46
56374;BME280;58212;47.034;7.376;2023-10-08T07:36:22;96431.53;;;12.59;77.02
56374;BME280;58212;47.034;7.376;2023-10-08T07:38:49;96430.06;;;12.63;76.38
56374;BME280;58212;47.034;7.376;2023-10-08T07:41:15;96428.16;;;12.70;75.97
56374;BME280;58212;47.034;7.376;2023-10-08T07:43:45;96419.91;;;12.78;76.69
56374;BME280;58212;47.034;7.376;2023-10-08T07:46:20;96421.94;;;13.19;74.42
56374;BME280;58212;47.034;7.376;2023-10-08T07:48:46;96425.97;;;14.64;69.11
56374;BME280;58212;47.034;7.376;2023-10-08T07:51:15;96411.84;;;15.50;65.97
56374;BME280;58212;47.034;7.376;2023-10-08T07:53:43;96406.69;;;15.60;64.64
56374;BME280;58212;47.034;7.376;2023-10-08T07:56:09;96406.09;;;15.70;64.70
56374;BME280;58212;47.034;7.376;2023-10-08T07:58:36;96416.34;;;14.86;66.80
56374;BME280;58212;47.034;7.376;2023-10-08T08:01:04;96432.81;;;14.07;69.92
56374;BME280;58212;47.034;7.376;2023-10-08T08:03:34;96426.78;;;14.00;70.52
56374;BME280;58212;47.034;7.376;2023-10-08T08:06:03;96429.44;;;14.53;69.69
56374;BME280;58212;47.034;7.376;2023-10-08T08:08:33;96427.38;;;14.55;70.50
56374;BME280;58212;47.034;7.376;2023-10-08T08:11:01;96426.44;;;14.61;70.89
56374;BME280;58212;47.034;7.376;2023-10-08T08:13:31;96425.41;;;14.85;70.69
56374;BME280;58212;47.034;7.376;2023-10-08T08:15:59;96424.25;;;14.81;69.83
56374;BME280;58212;47.034;7.376;2023-10-08T08:18:37;96426.56;;;14.54;69.61
56374;BME280;58212;47.034;7.376;2023-10-08T08:21:09;96430.94;;;14.84;69.17
56374;BME280;58212;47.034;7.376;2023-10-08T08:23:40;96438.94;;;14.84;68.77
56374;BME280;58212;47.034;7.376;2023-10-08T08:26:07;96442.97;;;15.09;68.71
56374;BME280;58212;47.034;7.376;2023-10-08T08:28:39;96448.44;;;15.14;68.09
56374;BME280;58212;47.034;7.376;2023-10-08T08:31:06;96450.06;;;15.04;68.70
56374;BME280;58212;47.034;7.376;2023-10-08T08:33:43;96450.56;;;14.89;67.64
56374;BME280;58212;47.034;7.376;2023-10-08T08:36:20;96451.47;;;14.83;68.71
56374;BME280;58212;47.034;7.376;2023-10-08T08:38:47;96453.22;;;14.89;66.54
56374;BME280;58212;47.034;7.376;2023-10-08T08:41:15;96452.06;;;14.74;67.84
56374;BME280;58212;47.034;7.376;2023-10-08T08:43:44;96446.00;;;14.90;69.83
56374;BME280;58212;47.034;7.376;2023-10-08T08:46:11;96450.75;;;14.53;70.30
56374;BME280;58212;47.034;7.376;2023-10-08T08:48:40;96460.63;;;14.52;71.13
56374;BME280;58212;47.034;7.376;2023-10-08T08:51:34;96462.34;;;14.58;69.78
56374;BME280;58212;47.034;7.376;2023-10-08T08:54:01;96458.53;;;14.89;68.60
56374;BME280;58212;47.034;7.376;2023-10-08T08:56:32;96456.22;;;14.70;68.69
56374;BME280;58212;47.034;7.376;2023-10-08T08:59:00;96449.38;;;14.85;69.01
56374;BME280;58212;47.034;7.376;2023-10-08T09:01:28;96447.47;;;15.21;66.02
56374;BME280;58212;47.034;7.376;2023-10-08T09:03:59;96438.66;;;15.32;66.27
56374;BME280;58212;47.034;7.376;2023-10-08T09:06:27;96441.88;;;15.34;64.42
56374;BME280;58212;47.034;7.376;2023-10-08T09:08:55;96437.16;;;15.24;64.56
56374;BME280;58212;47.034;7.376;2023-10-08T09:11:38;96445.94;;;15.48;64.43
56374;BME280;58212;47.034;7.376;2023-10-08T09:14:07;96444.63;;;15.62;64.27
56374;BME280;58212;47.034;7.376;2023-10-08T09:16:35;96439.63;;;15.94;64.00
56374;BME280;58212;47.034;7.376;2023-10-08T09:19:02;96442.56;;;16.26;63.66
56374;BME280;58212;47.034;7.376;2023-10-08T09:21:30;96443.03;;;16.51;62.64
56374;BME280;58212;47.034;7.376;2023-10-08T09:23:59;96445.38;;;16.64;63.00
56374;BME280;58212;47.034;7.376;2023-10-08T09:26:26;96437.78;;;16.73;62.66
56374;BME280;58212;47.034;7.376;2023-10-08T09:28:54;96427.50;;;16.65;62.59
56374;BME280;58212;47.034;7.376;2023-10-08T09:31:23;96432.47;;;16.94;63.67
56374;BME280;58212;47.034;7.376;2023-10-08T09:33:53;96434.69;;;17.02;63.58
56374;BME280;58212;47.034;7.376;2023-10-08T09:36:21;96431.09;;;17.14;62.29
56374;BME280;58212;47.034;7.376;2023-10-08T09:39:00;96418.44;;;17.26;61.85
56374;BME280;58212;47.034;7.376;2023-10-08T09:41:28;96418.44;;;17.47;60.69
56374;BME280;58212;47.034;7.376;2023-10-08T09:43:56;96425.41;;;17.48;60.81
56374;BME280;58212;47.034;7.376;2023-10-08T09:46:29;96419.56;;;17.73;60.90
56374;BME280;58212;47.034;7.376;2023-10-08T09:48:59;96421.25;;;17.79;61.00
56374;BME280;58212;47.034;7.376;2023-10-08T09:51:29;96427.56;;;17.95;61.11
56374;BME280;58212;47.034;7.376;2023-10-08T09:54:05;96424.66;;;18.01;59.75
56374;BME280;58212;47.034;7.376;2023-10-08T09:56:36;96416.34;;;17.98;59.55
56374;BME280;58212;47.034;7.376;2023-10-08T09:59:05;96418.31;;;18.08;59.31
56374;BME280;58212;47.034;7.376;2023-10-08T10:01:33;96420.78;;;18.46;59.25
56374;BME280;58212;47.034;7.376;2023-10-08T10:04:00;96418.72;;;18.53;58.14
56374;BME280;58212;47.034;7.376;2023-10-08T10:06:28;96422.81;;;18.61;58.22
56374;BME280;58212;47.034;7.376;2023-10-08T10:08:56;96420.47;;;18.69;57.30
56374;BME280;58212;47.034;7.376;2023-10-08T10:11:28;96423.53;;;18.88;56.91
56374;BME280;58212;47.034;7.376;2023-10-08T10:13:58;96413.03;;;18.81;57.11
56374;BME280;58212;47.034;7.376;2023-10-08T10:16:26;96422.69;;;18.82;56.83
56374;BME280;58212;47.034;7.376;2023-10-08T10:18:55;96414.97;;;18.91;56.19
56374;BME280;58212;47.034;7.376;2023-10-08T10:21:25;96421.03;;;19.18;57.26
56374;BME280;58212;47.034;7.376;2023-10-08T10:23:53;96410.97;;;19.40;57.84
56374;BME280;58212;47.034;7.376;2023-10-08T10:26:25;96409.41;;;19.44;55.95
56374;BME280;58212;47.034;7.376;2023-10-08T10:29:19;96416.38;;;19.56;55.44
56374;BME280;58212;47.034;7.376;2023-10-08T10:31:48;96413.97;;;19.54;56.12
56374;BME280;58212;47.034;7.376;2023-10-08T10:34:21;96413.44;;;19.57;56.42
56374;BME280;58212;47.034;7.376;2023-10-08T10:36:50;96399.25;;;19.72;54.89
56374;BME280;58212;47.034;7.376;2023-10-08T10:39:21;96398.75;;;19.85;54.99
56374;BME280;58212;47.034;7.376;2023-10-08T10:41:54;96400.97;;;20.03;55.01
56374;BME280;58212;47.034;7.376;2023-10-08T10:44:24;96399.88;;;20.04;56.13
56374;BME280;58212;47.034;7.376;2023-10-08T10:46:52;96393.97;;;20.17;55.40
56374;BME280;58212;47.034;7.376;2023-10-08T10:49:40;96395.84;;;20.07;53.14
56374;BME280;58212;47.034;7.376;2023-10-08T10:52:15;96397.47;;;20.23;53.85
56374;BME280;58212;47.034;7.376;2023-10-08T10:54:58;96393.75;;;20.29;53.43
56374;BME280;58212;47.034;7.376;2023-10-08T10:57:26;96392.41;;;20.41;53.50
56374;BME280;58212;47.034;7.376;2023-10-08T11:00:04;96394.00;;;20.53;53.69
56374;BME280;58212;47.034;7.376;2023-10-08T11:02:55;96396.44;;;20.54;53.84
56374;BME280;58212;47.034;7.376;2023-10-08T11:05:25;96395.91;;;20.42;53.31
56374;BME280;58212;47.034;7.376;2023-10-08T11:07:54;96394.81;;;20.48;54.16
56374;BME280;58212;47.034;7.376;2023-10-08T11:10:26;96389.97;;;20.65;53.63
56374;BME280;58212;47.034;7.376;2023-10-08T11:12:54;96393.44;;;20.66;54.43
56374;BME280;58212;47.034;7.376;2023-10-08T11:15:26;96397.22;;;20.80;54.66
56374;BME280;58212;47.034;7.376;2023-10-08T11:18:06;96388.31;;;20.89;53.76
56374;BME280;58212;47.034;7.376;2023-10-08T11:20:33;96388.31;;;20.94;53.73
56374;BME280;58212;47.034;7.376;2023-10-08T11:23:05;96379.69;;;20.98;53.15
56374;BME280;58212;47.034;7.376;2023-10-08T11:25:52;96378.88;;;21.02;53.82
56374;BME280;58212;47.034;7.376;2023-10-08T11:28:19;96378.06;;;21.12;53.66
56374;BME280;58212;47.034;7.376;2023-10-08T11:30:48;96370.00;;;21.12;53.48
56374;BME280;58212;47.034;7.376;2023-10-08T11:33:17;96378.84;;;21.22;53.92
56374;BME280;58212;47.034;7.376;2023-10-08T11:35:58;96369.91;;;21.32;53.40
56374;BME280;58212;47.034;7.376;2023-10-08T11:38:37;96369.38;;;21.35;52.97
56374;BME280;58212;47.034;7.376;2023-10-08T11:41:11;96362.88;;;21.41;53.70
56374;BME280;58212;47.034;7.376;2023-10-08T11:43:47;96359.31;;;21.51;54.13
56374;BME280;58212;47.034;7.376;2023-10-08T11:46:21;96362.56;;;21.48;52.88
56374;BME280;58212;47.034;7.376;2023-10-08T11:48:51;96362.75;;;21.61;54.20
56374;BME280;58212;47.034;7.376;2023-10-08T11:51:18;96359.03;;;21.57;53.85
56374;BME280;58212;47.034;7.376;2023-10-08T11:53:49;96359.00;;;21.62;53.18
56374;BME280;58212;47.034;7.376;2023-10-08T11:56:16;96349.84;;;21.58;53.02
56374;BME280;58212;47.034;7.376;2023-10-08T11:58:47;96347.16;;;21.58;52.20
56374;BME280;58212;47.034;7.376;2023-10-08T12:01:13;96341.19;;;21.66;53.35
56374;BME280;58212;47.034;7.376;2023-10-08T12:03:43;96338.22;;;21.68;54.16
56374;BME280;58212;47.034;7.376;2023-10-08T12:06:10;96329.84;;;21.74;55.00
56374;BME280;58212;47.034;7.376;2023-10-08T12:08:41;96328.78;;;21.65;54.87
56374;BME280;58212;47.034;7.376;2023-10-08T12:11:12;96326.56;;;21.77;54.95
56374;BME280;58212;47.034;7.376;2023-10-08T12:13:39;96323.84;;;21.82;54.30
56374;BME280;58212;47.034;7.376;2023-10-08T12:16:11;96323.28;;;21.85;54.27
56374;BME280;58212;47.034;7.376;2023-10-08T12:18:45;96323.50;;;21.94;54.62
56374;BME280;58212;47.034;7.376;2023-10-08T12:21:14;96320.53;;;22.01;54.60
56374;BME280;58212;47.034;7.376;2023-10-08T12:23:43;96319.66;;;22.05;54.39
56374;BME280;58212;47.034;7.376;2023-10-08T12:26:11;96322.69;;;21.99;55.17
56374;BME280;58212;47.034;7.376;2023-10-08T12:28:41;96319.41;;;22.02;55.09
56374;BME280;58212;47.034;7.376;2023-10-08T12:31:10;96307.13;;;21.85;53.75
56374;BME280;58212;47.034;7.376;2023-10-08T12:33:37;96320.03;;;21.94;55.26
56374;BME280;58212;47.034;7.376;2023-10-08T12:36:07;96311.94;;;21.88;54.59
56374;BME280;58212;47.034;7.376;2023-10-08T12:38:39;96308.72;;;21.91;54.07
56374;BME280;58212;47.034;7.376;2023-10-08T12:41:06;96313.00;;;21.98;55.14
56374;BME280;58212;47.034;7.376;2023-10-08T12:43:39;96313.00;;;21.98;54.87
56374;BME280;58212;47.034;7.376;2023-10-08T12:46:08;96311.06;;;22.03;54.89
56374;BME280;58212;47.034;7.376;2023-10-08T12:48:41;96306.75;;;22.02;54.58
56374;BME280;58212;47.034;7.376;2023-10-08T12:51:10;96299.00;;;21.90;54.73
56374;BME280;58212;47.034;7.376;2023-10-08T12:53:37;96309.75;;;22.01;54.13
56374;BME280;58212;47.034;7.376;2023-10-08T12:56:05;96300.63;;;21.91;55.01
56374;BME280;58212;47.034;7.376;2023-10-08T12:58:33;96299.56;;;21.92;54.33
56374;BME280;58212;47.034;7.376;2023-10-08T13:01:06;96296.84;;;21.92;54.08
56374;BME280;58212;47.034;7.376;2023-10-08T13:03:35;96303.47;;;22.05;54.37
56374;BME280;58212;47.034;7.376;2023-10-08T13:06:07;96299.94;;;22.10;53.92
56374;BME280;58212;47.034;7.376;2023-10-08T13:08:38;96301.47;;;22.21;54.09
56374;BME280;58212;47.034;7.376;2023-10-08T13:11:05;96296.75;;;22.08;53.60
56374;BME280;58212;47.034;7.376;2023-10-08T13:13:32;96299.63;;;22.16;54.06
56374;BME280;58212;47.034;7.376;2023-10-08T13:15:59;96294.56;;;22.10;54.19
56374;BME280;58212;47.034;7.376;2023-10-08T13:18:32;96294.28;;;22.11;54.26
56374;BME280;58212;47.034;7.376;2023-10-08T13:20:59;96298.25;;;22.19;54.47
56374;BME280;58212;47.034;7.376;2023-10-08T13:23:26;96294.63;;;22.05;57.32
56374;BME280;58212;47.034;7.376;2023-10-08T13:25:54;96290.34;;;21.99;55.83
56374;BME280;58212;47.034;7.376;2023-10-08T13:28:21;96293.81;;;22.04;54.78